sensor_id;sensor_type;location;lat;lon;timestamp;temperature;humidity
67273;DHT22;54190;49.770;9.250;2023-04-24T00:00:09;11.00;99.90
67273;DHT22;54190;49.770;9.250;2023-04-24T00:02:35;11.00;99.90
67273;DHT22;54190;49.770;9.250;2023-04-24T00:05:07;11.00;99.90
67273;DHT22;54190;49.770;9.250;2023-04-24T00:07:33;10.90;99.90
67273;DHT22;54190;49.770;9.250;2023-04-24T00:09:59;10.90;99.90
67273;DHT22;54190;49.770;9.250;2023-04-24T00:12:25;10.90;99.90
67273;DHT22;54190;49.770;9.250;2023-04-24T00:14:51;10.90;99.90
67273;DHT22;54190;49.770;9.250;2023-04-24T00:17:17;10.90;99.90
67273;DHT22;54190;49.770;9.250;2023-04-24T00:19:48;10.90;99.90
67273;DHT22;54190;49.770;9.250;2023-04-24T00:22:15;11.00;99.90
67273;DHT22;54190;49.770;9.250;2023-04-24T00:24:41;11.00;99.90
67273;DHT22;54190;49.770;9.250;2023-04-24T00:27:07;11.00;99.90
67273;DHT22;54190;49.770;9.250;2023-04-24T00:29:32;11.00;99.90
67273;DHT22;54190;49.770;9.250;2023-04-24T00:31:58;11.00;99.90
67273;DHT22;54190;49.770;9.250;2023-04-24T00:34:24;11.00;99.90
67273;DHT22;54190;49.770;9.250;2023-04-24T00:36:49;11.00;99.90
67273;DHT22;54190;49.770;9.250;2023-04-24T00:39:19;11.00;99.90
67273;DHT22;54190;49.770;9.250;2023-04-24T00:41:45;10.90;99.90
67273;DHT22;54190;49.770;9.250;2023-04-24T00:44:11;10.90;99.90
67273;DHT22;54190;49.770;9.250;2023-04-24T00:46:38;10.90;99.90
67273;DHT22;54190;49.770;9.250;2023-04-24T00:49:05;11.00;99.90
67273;DHT22;54190;49.770;9.250;2023-04-24T00:51:31;10.90;99.90
67273;DHT22;54190;49.770;9.250;2023-04-24T00:53:58;10.90;99.90
67273;DHT22;54190;49.770;9.250;2023-04-24T00:56:24;10.90;99.90
67273;DHT22;54190;49.770;9.250;2023-04-24T00:58:50;10.90;99.90
67273;DHT22;54190;49.770;9.250;2023-04-24T01:01:15;10.90;99.90
67273;DHT22;54190;49.770;9.250;2023-04-24T01:03:42;10.90;99.90
67273;DHT22;54190;49.770;9.250;2023-04-24T01:06:09;10.90;99.90
67273;DHT22;54190;49.770;9.250;2023-04-24T01:08:36;11.00;99.90
67273;DHT22;54190;49.770;9.250;2023-04-24T01:11:03;10.90;99.90
67273;DHT22;54190;49.770;9.250;2023-04-24T01:13:31;10.90;99.90
67273;DHT22;54190;49.770;9.250;2023-04-24T01:15:57;11.00;99.90
67273;DHT22;54190;49.770;9.250;2023-04-24T01:18:23;11.00;99.90
67273;DHT22;54190;49.770;9.250;2023-04-24T01:20:51;11.00;99.90
67273;DHT22;54190;49.770;9.250;2023-04-24T01:23:18;11.00;99.90
67273;DHT22;54190;49.770;9.250;2023-04-24T01:25:44;10.90;99.90
67273;DHT22;54190;49.770;9.250;2023-04-24T01:28:10;10.90;99.90
67273;DHT22;54190;49.770;9.250;2023-04-24T01:30:37;10.90;99.90
67273;DHT22;54190;49.770;9.250;2023-04-24T01:33:03;10.90;99.90
67273;DHT22;54190;49.770;9.250;2023-04-24T01:35:29;10.90;99.90
67273;DHT22;54190;49.770;9.250;2023-04-24T01:37:55;10.90;99.90
67273;DHT22;54190;49.770;9.250;2023-04-24T01:40:20;10.90;99.90
67273;DHT22;54190;49.770;9.250;2023-04-24T01:42:46;10.90;99.90
67273;DHT22;54190;49.770;9.250;2023-04-24T01:45:12;10.90;99.90
67273;DHT22;54190;49.770;9.250;2023-04-24T01:47:38;10.90;99.90
67273;DHT22;54190;49.770;9.250;2023-04-24T01:50:05;10.90;99.90
67273;DHT22;54190;49.770;9.250;2023-04-24T01:52:31;10.80;99.90
67273;DHT22;54190;49.770;9.250;2023-04-24T01:55:02;10.90;99.90
67273;DHT22;54190;49.770;9.250;2023-04-24T01:57:30;10.90;99.90
67273;DHT22;54190;49.770;9.250;2023-04-24T01:59:56;10.90;99.90
67273;DHT22;54190;49.770;9.250;2023-04-24T02:02:22;10.90;99.90
67273;DHT22;54190;49.770;9.250;2023-04-24T02:04:50;10.90;99.90
67273;DHT22;54190;49.770;9.250;2023-04-24T02:07:15;10.90;99.90
67273;DHT22;54190;49.770;9.250;2023-04-24T02:09:41;10.90;99.90
67273;DHT22;54190;49.770;9.250;2023-04-24T02:12:07;10.90;99.90
67273;DHT22;54190;49.770;9.250;2023-04-24T02:14:33;10.90;99.90
67273;DHT22;54190;49.770;9.250;2023-04-24T02:16:58;10.90;99.90
67273;DHT22;54190;49.770;9.250;2023-04-24T02:19:24;10.90;99.90
67273;DHT22;54190;49.770;9.250;2023-04-24T02:21:50;11.00;99.90
67273;DHT22;54190;49.770;9.250;2023-04-24T02:24:15;10.90;99.90
67273;DHT22;54190;49.770;9.250;2023-04-24T02:26:41;10.90;99.90
67273;DHT22;54190;49.770;9.250;2023-04-24T02:29:07;11.00;99.90
67273;DHT22;54190;49.770;9.250;2023-04-24T02:31:33;11.00;99.90
67273;DHT22;54190;49.770;9.250;2023-04-24T02:33:59;11.00;99.90
67273;DHT22;54190;49.770;9.250;2023-04-24T02:36:25;10.90;99.90
67273;DHT22;54190;49.770;9.250;2023-04-24T02:38:50;10.90;99.90
67273;DHT22;54190;49.770;9.250;2023-04-24T02:41:16;10.90;99.90
67273;DHT22;54190;49.770;9.250;2023-04-24T02:43:42;10.90;99.90
67273;DHT22;54190;49.770;9.250;2023-04-24T02:46:07;10.90;99.90
67273;DHT22;54190;49.770;9.250;2023-04-24T02:48:33;10.90;99.90
67273;DHT22;54190;49.770;9.250;2023-04-24T02:50:59;11.00;99.90
67273;DHT22;54190;49.770;9.250;2023-04-24T02:53:24;11.00;99.90
67273;DHT22;54190;49.770;9.250;2023-04-24T02:55:50;11.00;99.90
67273;DHT22;54190;49.770;9.250;2023-04-24T02:58:16;11.00;99.90
67273;DHT22;54190;49.770;9.250;2023-04-24T03:00:42;11.00;99.90
67273;DHT22;54190;49.770;9.250;2023-04-24T03:03:08;11.00;99.90
67273;DHT22;54190;49.770;9.250;2023-04-24T03:05:34;10.90;99.90
67273;DHT22;54190;49.770;9.250;2023-04-24T03:08:00;10.90;99.90
67273;DHT22;54190;49.770;9.250;2023-04-24T03:10:26;10.90;99.90
67273;DHT22;54190;49.770;9.250;2023-04-24T03:12:52;10.90;99.90
67273;DHT22;54190;49.770;9.250;2023-04-24T03:15:18;10.90;99.90
67273;DHT22;54190;49.770;9.250;2023-04-24T03:17:43;10.90;99.90
67273;DHT22;54190;49.770;9.250;2023-04-24T03:20:09;10.80;99.90
67273;DHT22;54190;49.770;9.250;2023-04-24T03:22:35;10.80;99.90
67273;DHT22;54190;49.770;9.250;2023-04-24T03:25:05;10.80;99.90
67273;DHT22;54190;49.770;9.250;2023-04-24T03:27:31;10.80;99.90
67273;DHT22;54190;49.770;9.250;2023-04-24T03:30:01;10.80;99.90
67273;DHT22;54190;49.770;9.250;2023-04-24T03:32:37;10.80;99.90
67273;DHT22;54190;49.770;9.250;2023-04-24T03:35:06;10.80;99.90
67273;DHT22;54190;49.770;9.250;2023-04-24T03:37:33;10.80;99.90
67273;DHT22;54190;49.770;9.250;2023-04-24T03:40:13;10.80;99.90
67273;DHT22;54190;49.770;9.250;2023-04-24T03:42:40;10.80;99.90
67273;DHT22;54190;49.770;9.250;2023-04-24T03:45:06;10.70;99.90
67273;DHT22;54190;49.770;9.250;2023-04-24T03:47:34;10.70;99.90
67273;DHT22;54190;49.770;9.250;2023-04-24T03:50:02;10.70;99.90
67273;DHT22;54190;49.770;9.250;2023-04-24T03:52:29;10.60;99.90
67273;DHT22;54190;49.770;9.250;2023-04-24T03:54:55;10.50;99.90
67273;DHT22;54190;49.770;9.250;2023-04-24T03:57:21;10.50;99.90
67273;DHT22;54190;49.770;9.250;2023-04-24T04:00:00;10.50;99.90
67273;DHT22;54190;49.770;9.250;2023-04-24T04:02:40;10.40;99.90
67273;DHT22;54190;49.770;9.250;2023-04-24T04:05:07;10.30;99.90
67273;DHT22;54190;49.770;9.250;2023-04-24T04:07:33;10.30;99.90
67273;DHT22;54190;49.770;9.250;2023-04-24T04:09:59;10.30;99.90
67273;DHT22;54190;49.770;9.250;2023-04-24T04:12:25;10.30;99.90
67273;DHT22;54190;49.770;9.250;2023-04-24T04:14:50;10.30;99.90
67273;DHT22;54190;49.770;9.250;2023-04-24T04:17:17;10.40;99.90
67273;DHT22;54190;49.770;9.250;2023-04-24T04:19:43;10.30;99.90
67273;DHT22;54190;49.770;9.250;2023-04-24T04:22:09;10.20;99.90
67273;DHT22;54190;49.770;9.250;2023-04-24T04:24:42;10.20;99.90
67273;DHT22;54190;49.770;9.250;2023-04-24T04:27:09;10.20;99.90
67273;DHT22;54190;49.770;9.250;2023-04-24T04:29:45;10.10;99.90
67273;DHT22;54190;49.770;9.250;2023-04-24T04:32:12;10.10;99.90
67273;DHT22;54190;49.770;9.250;2023-04-24T04:34:38;10.10;99.90
67273;DHT22;54190;49.770;9.250;2023-04-24T04:37:06;10.10;99.90
67273;DHT22;54190;49.770;9.250;2023-04-24T04:39:49;10.10;99.90
67273;DHT22;54190;49.770;9.250;2023-04-24T04:42:19;10.10;99.90
67273;DHT22;54190;49.770;9.250;2023-04-24T04:44:45;10.10;99.90
67273;DHT22;54190;49.770;9.250;2023-04-24T04:47:26;10.00;99.90
67273;DHT22;54190;49.770;9.250;2023-04-24T04:49:55;10.00;99.90
67273;DHT22;54190;49.770;9.250;2023-04-24T04:52:25;9.90;99.90
67273;DHT22;54190;49.770;9.250;2023-04-24T04:54:59;9.90;99.90
67273;DHT22;54190;49.770;9.250;2023-04-24T04:57:34;9.80;99.90
67273;DHT22;54190;49.770;9.250;2023-04-24T05:00:00;9.80;99.90
67273;DHT22;54190;49.770;9.250;2023-04-24T05:02:39;9.70;99.90
67273;DHT22;54190;49.770;9.250;2023-04-24T05:05:06;9.70;99.90
67273;DHT22;54190;49.770;9.250;2023-04-24T05:07:32;9.70;99.90
67273;DHT22;54190;49.770;9.250;2023-04-24T05:09:58;9.70;99.90
67273;DHT22;54190;49.770;9.250;2023-04-24T05:12:23;9.70;99.90
67273;DHT22;54190;49.770;9.250;2023-04-24T05:14:51;9.60;99.90
67273;DHT22;54190;49.770;9.250;2023-04-24T05:17:18;9.60;99.90
67273;DHT22;54190;49.770;9.250;2023-04-24T05:19:44;9.60;99.90
67273;DHT22;54190;49.770;9.250;2023-04-24T05:22:10;9.50;99.90
67273;DHT22;54190;49.770;9.250;2023-04-24T05:24:45;9.60;99.90
67273;DHT22;54190;49.770;9.250;2023-04-24T05:27:31;9.50;99.90
67273;DHT22;54190;49.770;9.250;2023-04-24T05:29:57;9.50;99.90
67273;DHT22;54190;49.770;9.250;2023-04-24T05:32:23;9.50;99.90
67273;DHT22;54190;49.770;9.250;2023-04-24T05:34:49;9.50;99.90
67273;DHT22;54190;49.770;9.250;2023-04-24T05:37:14;9.40;99.90
67273;DHT22;54190;49.770;9.250;2023-04-24T05:39:40;9.50;99.90
67273;DHT22;54190;49.770;9.250;2023-04-24T05:42:07;9.50;99.90
67273;DHT22;54190;49.770;9.250;2023-04-24T05:44:33;9.40;99.90
67273;DHT22;54190;49.770;9.250;2023-04-24T05:46:59;9.50;99.90
67273;DHT22;54190;49.770;9.250;2023-04-24T05:49:25;9.50;99.90
67273;DHT22;54190;49.770;9.250;2023-04-24T05:51:51;9.50;99.90
67273;DHT22;54190;49.770;9.250;2023-04-24T05:54:17;9.40;99.90
67273;DHT22;54190;49.770;9.250;2023-04-24T05:56:42;9.50;99.90
67273;DHT22;54190;49.770;9.250;2023-04-24T05:59:15;9.40;99.90
67273;DHT22;54190;49.770;9.250;2023-04-24T06:01:41;9.40;99.90
67273;DHT22;54190;49.770;9.250;2023-04-24T06:04:17;9.40;99.90
67273;DHT22;54190;49.770;9.250;2023-04-24T06:06:43;9.50;99.90
67273;DHT22;54190;49.770;9.250;2023-04-24T06:09:09;9.50;99.90
67273;DHT22;54190;49.770;9.250;2023-04-24T06:11:35;9.50;99.90
67273;DHT22;54190;49.770;9.250;2023-04-24T06:14:03;9.50;99.90
67273;DHT22;54190;49.770;9.250;2023-04-24T06:16:40;9.60;99.90
67273;DHT22;54190;49.770;9.250;2023-04-24T06:19:16;9.60;99.90
67273;DHT22;54190;49.770;9.250;2023-04-24T06:21:42;9.60;99.90
67273;DHT22;54190;49.770;9.250;2023-04-24T06:24:07;9.60;99.90
67273;DHT22;54190;49.770;9.250;2023-04-24T06:26:33;9.70;99.90
67273;DHT22;54190;49.770;9.250;2023-04-24T06:28:59;9.60;99.90
67273;DHT22;54190;49.770;9.250;2023-04-24T06:31:25;9.60;99.90
67273;DHT22;54190;49.770;9.250;2023-04-24T06:33:51;9.70;99.90
67273;DHT22;54190;49.770;9.250;2023-04-24T06:36:17;9.70;99.90
67273;DHT22;54190;49.770;9.250;2023-04-24T06:38:42;9.70;99.90
67273;DHT22;54190;49.770;9.250;2023-04-24T06:41:09;9.70;99.90
67273;DHT22;54190;49.770;9.250;2023-04-24T06:43:35;9.80;99.90
67273;DHT22;54190;49.770;9.250;2023-04-24T06:46:02;9.80;99.90
67273;DHT22;54190;49.770;9.250;2023-04-24T06:48:29;9.90;99.90
67273;DHT22;54190;49.770;9.250;2023-04-24T06:50:54;10.00;99.90
67273;DHT22;54190;49.770;9.250;2023-04-24T06:53:20;10.10;99.90
67273;DHT22;54190;49.770;9.250;2023-04-24T06:55:46;10.20;99.90
67273;DHT22;54190;49.770;9.250;2023-04-24T06:58:12;10.30;99.90
67273;DHT22;54190;49.770;9.250;2023-04-24T07:00:38;10.30;99.90
67273;DHT22;54190;49.770;9.250;2023-04-24T07:03:04;10.30;99.90
67273;DHT22;54190;49.770;9.250;2023-04-24T07:05:31;10.30;99.90
67273;DHT22;54190;49.770;9.250;2023-04-24T07:07:59;10.30;99.90
67273;DHT22;54190;49.770;9.250;2023-04-24T07:10:24;10.40;99.90
67273;DHT22;54190;49.770;9.250;2023-04-24T07:12:52;10.40;99.90
67273;DHT22;54190;49.770;9.250;2023-04-24T07:15:18;10.40;99.90
67273;DHT22;54190;49.770;9.250;2023-04-24T07:17:43;10.40;99.90
67273;DHT22;54190;49.770;9.250;2023-04-24T07:20:10;10.40;99.90
67273;DHT22;54190;49.770;9.250;2023-04-24T07:22:40;10.40;99.90
67273;DHT22;54190;49.770;9.250;2023-04-24T07:25:06;10.30;99.90
67273;DHT22;54190;49.770;9.250;2023-04-24T07:27:32;10.30;99.90
67273;DHT22;54190;49.770;9.250;2023-04-24T07:29:58;10.30;99.90
67273;DHT22;54190;49.770;9.250;2023-04-24T07:32:24;10.30;99.90
67273;DHT22;54190;49.770;9.250;2023-04-24T07:34:50;10.30;99.90
67273;DHT22;54190;49.770;9.250;2023-04-24T07:37:15;10.40;99.90
67273;DHT22;54190;49.770;9.250;2023-04-24T07:39:41;10.40;99.90
67273;DHT22;54190;49.770;9.250;2023-04-24T07:42:06;10.40;99.90
67273;DHT22;54190;49.770;9.250;2023-04-24T07:44:32;10.30;99.90
67273;DHT22;54190;49.770;9.250;2023-04-24T07:46:58;10.30;99.90
67273;DHT22;54190;49.770;9.250;2023-04-24T07:49:23;10.30;99.90
67273;DHT22;54190;49.770;9.250;2023-04-24T07:51:49;10.30;99.90
67273;DHT22;54190;49.770;9.250;2023-04-24T07:54:15;10.30;99.90
67273;DHT22;54190;49.770;9.250;2023-04-24T07:56:41;10.30;99.90
67273;DHT22;54190;49.770;9.250;2023-04-24T07:59:08;10.30;99.90
67273;DHT22;54190;49.770;9.250;2023-04-24T08:01:35;10.30;99.90
67273;DHT22;54190;49.770;9.250;2023-04-24T08:04:01;10.30;99.90
67273;DHT22;54190;49.770;9.250;2023-04-24T08:06:27;10.40;99.90
67273;DHT22;54190;49.770;9.250;2023-04-24T08:08:56;10.40;99.90
67273;DHT22;54190;49.770;9.250;2023-04-24T08:11:21;10.50;99.90
67273;DHT22;54190;49.770;9.250;2023-04-24T08:13:47;10.60;99.90
67273;DHT22;54190;49.770;9.250;2023-04-24T08:16:13;10.70;99.90
67273;DHT22;54190;49.770;9.250;2023-04-24T08:18:38;10.80;99.90
67273;DHT22;54190;49.770;9.250;2023-04-24T08:21:04;10.90;99.90
67273;DHT22;54190;49.770;9.250;2023-04-24T08:23:30;10.90;99.90
67273;DHT22;54190;49.770;9.250;2023-04-24T08:25:56;10.90;99.90
67273;DHT22;54190;49.770;9.250;2023-04-24T08:28:22;11.00;99.90
67273;DHT22;54190;49.770;9.250;2023-04-24T08:30:48;10.90;99.90
67273;DHT22;54190;49.770;9.250;2023-04-24T08:33:14;10.90;99.90
67273;DHT22;54190;49.770;9.250;2023-04-24T08:35:40;10.90;99.90
67273;DHT22;54190;49.770;9.250;2023-04-24T08:38:06;11.00;99.90
67273;DHT22;54190;49.770;9.250;2023-04-24T08:40:34;11.10;99.90
67273;DHT22;54190;49.770;9.250;2023-04-24T08:43:00;11.20;99.90
67273;DHT22;54190;49.770;9.250;2023-04-24T08:45:26;11.30;99.90
67273;DHT22;54190;49.770;9.250;2023-04-24T08:47:55;11.30;99.90
67273;DHT22;54190;49.770;9.250;2023-04-24T08:50:22;11.50;99.90
67273;DHT22;54190;49.770;9.250;2023-04-24T08:52:50;11.70;99.90
67273;DHT22;54190;49.770;9.250;2023-04-24T08:55:19;11.70;99.90
67273;DHT22;54190;49.770;9.250;2023-04-24T08:57:50;11.70;99.90
67273;DHT22;54190;49.770;9.250;2023-04-24T09:00:17;11.60;99.90
67273;DHT22;54190;49.770;9.250;2023-04-24T09:02:45;11.50;99.90
67273;DHT22;54190;49.770;9.250;2023-04-24T09:05:13;11.30;99.90
67273;DHT22;54190;49.770;9.250;2023-04-24T09:07:39;11.30;99.90
67273;DHT22;54190;49.770;9.250;2023-04-24T09:10:07;11.20;99.90
67273;DHT22;54190;49.770;9.250;2023-04-24T09:12:34;11.10;99.90
67273;DHT22;54190;49.770;9.250;2023-04-24T09:15:01;11.00;99.90
67273;DHT22;54190;49.770;9.250;2023-04-24T09:17:30;10.90;99.90
67273;DHT22;54190;49.770;9.250;2023-04-24T09:19:55;10.80;99.90
67273;DHT22;54190;49.770;9.250;2023-04-24T09:22:21;10.80;99.90
67273;DHT22;54190;49.770;9.250;2023-04-24T09:24:47;10.80;99.90
67273;DHT22;54190;49.770;9.250;2023-04-24T09:27:13;10.90;99.90
67273;DHT22;54190;49.770;9.250;2023-04-24T09:29:54;10.90;99.90
67273;DHT22;54190;49.770;9.250;2023-04-24T09:32:21;10.90;99.90
67273;DHT22;54190;49.770;9.250;2023-04-24T09:34:48;11.00;99.90
67273;DHT22;54190;49.770;9.250;2023-04-24T09:37:29;11.10;99.90
67273;DHT22;54190;49.770;9.250;2023-04-24T09:42:37;11.50;99.90
67273;DHT22;54190;49.770;9.250;2023-04-24T09:45:04;11.60;99.90
67273;DHT22;54190;49.770;9.250;2023-04-24T09:47:39;11.70;99.90
67273;DHT22;54190;49.770;9.250;2023-04-24T09:50:14;11.80;99.90
67273;DHT22;54190;49.770;9.250;2023-04-24T09:52:44;11.80;99.90
67273;DHT22;54190;49.770;9.250;2023-04-24T09:55:15;11.70;99.90
67273;DHT22;54190;49.770;9.250;2023-04-24T09:58:01;11.60;99.90
67273;DHT22;54190;49.770;9.250;2023-04-24T10:00:32;11.40;99.90
67273;DHT22;54190;49.770;9.250;2023-04-24T10:02:58;11.30;99.90
67273;DHT22;54190;49.770;9.250;2023-04-24T10:05:30;11.10;99.90
67273;DHT22;54190;49.770;9.250;2023-04-24T10:08:01;11.10;99.90
67273;DHT22;54190;49.770;9.250;2023-04-24T10:10:29;11.10;99.90
67273;DHT22;54190;49.770;9.250;2023-04-24T10:12:55;11.00;99.90
67273;DHT22;54190;49.770;9.250;2023-04-24T10:15:21;11.10;99.90
67273;DHT22;54190;49.770;9.250;2023-04-24T10:17:49;11.10;99.90
67273;DHT22;54190;49.770;9.250;2023-04-24T10:20:25;11.10;99.90
67273;DHT22;54190;49.770;9.250;2023-04-24T10:22:53;11.20;99.90
67273;DHT22;54190;49.770;9.250;2023-04-24T10:25:21;11.30;99.90
67273;DHT22;54190;49.770;9.250;2023-04-24T10:27:48;11.30;99.90
67273;DHT22;54190;49.770;9.250;2023-04-24T10:30:15;11.30;99.90
67273;DHT22;54190;49.770;9.250;2023-04-24T10:32:41;11.30;99.90
67273;DHT22;54190;49.770;9.250;2023-04-24T10:35:08;11.40;99.90
67273;DHT22;54190;49.770;9.250;2023-04-24T10:37:48;11.40;99.90
67273;DHT22;54190;49.770;9.250;2023-04-24T10:40:18;11.40;99.90
67273;DHT22;54190;49.770;9.250;2023-04-24T10:42:48;11.40;99.90
67273;DHT22;54190;49.770;9.250;2023-04-24T10:45:19;11.40;99.90
67273;DHT22;54190;49.770;9.250;2023-04-24T10:48:01;11.40;99.90
67273;DHT22;54190;49.770;9.250;2023-04-24T10:50:29;11.30;99.90
67273;DHT22;54190;49.770;9.250;2023-04-24T10:53:06;11.30;99.90
67273;DHT22;54190;49.770;9.250;2023-04-24T10:55:43;11.40;99.90
67273;DHT22;54190;49.770;9.250;2023-04-24T10:58:09;11.60;99.90
67273;DHT22;54190;49.770;9.250;2023-04-24T11:00:37;11.80;99.90
67273;DHT22;54190;49.770;9.250;2023-04-24T11:03:05;11.80;99.90
67273;DHT22;54190;49.770;9.250;2023-04-24T11:05:58;11.80;99.90
67273;DHT22;54190;49.770;9.250;2023-04-24T11:08:32;11.70;99.90
67273;DHT22;54190;49.770;9.250;2023-04-24T11:11:15;11.60;99.90
67273;DHT22;54190;49.770;9.250;2023-04-24T11:14:02;11.60;99.90
67273;DHT22;54190;49.770;9.250;2023-04-24T11:16:31;11.70;99.90
67273;DHT22;54190;49.770;9.250;2023-04-24T11:24:38;12.40;99.90
67273;DHT22;54190;49.770;9.250;2023-04-24T11:27:16;12.50;99.90
67273;DHT22;54190;49.770;9.250;2023-04-24T11:32:38;12.80;99.90
67273;DHT22;54190;49.770;9.250;2023-04-24T11:35:21;12.90;99.90
67273;DHT22;54190;49.770;9.250;2023-04-24T11:37:52;12.90;99.90
67273;DHT22;54190;49.770;9.250;2023-04-24T11:40:19;13.00;99.90
67273;DHT22;54190;49.770;9.250;2023-04-24T11:42:50;13.20;99.90
67273;DHT22;54190;49.770;9.250;2023-04-24T11:47:43;13.30;99.90
67273;DHT22;54190;49.770;9.250;2023-04-24T11:50:15;13.20;99.90
67273;DHT22;54190;49.770;9.250;2023-04-24T11:52:42;13.20;99.90
67273;DHT22;54190;49.770;9.250;2023-04-24T11:57:54;13.40;99.90
67273;DHT22;54190;49.770;9.250;2023-04-24T12:00:27;13.60;99.90
67273;DHT22;54190;49.770;9.250;2023-04-24T12:03:13;13.80;99.90
67273;DHT22;54190;49.770;9.250;2023-04-24T12:05:39;13.80;99.80
67273;DHT22;54190;49.770;9.250;2023-04-24T12:08:05;13.90;99.90
67273;DHT22;54190;49.770;9.250;2023-04-24T12:10:32;14.20;99.90
67273;DHT22;54190;49.770;9.250;2023-04-24T12:12:58;14.40;99.90
67273;DHT22;54190;49.770;9.250;2023-04-24T12:15:25;14.30;98.70
67273;DHT22;54190;49.770;9.250;2023-04-24T12:17:53;14.20;98.90
67273;DHT22;54190;49.770;9.250;2023-04-24T12:20:27;14.20;99.70
67273;DHT22;54190;49.770;9.250;2023-04-24T12:22:55;14.20;99.80
67273;DHT22;54190;49.770;9.250;2023-04-24T12:25:29;14.10;98.10
67273;DHT22;54190;49.770;9.250;2023-04-24T12:28:09;14.00;99.90
67273;DHT22;54190;49.770;9.250;2023-04-24T12:30:43;14.00;99.50
67273;DHT22;54190;49.770;9.250;2023-04-24T12:33:17;13.90;99.90
67273;DHT22;54190;49.770;9.250;2023-04-24T12:35:43;14.10;99.30
67273;DHT22;54190;49.770;9.250;2023-04-24T12:38:11;14.00;98.40
67273;DHT22;54190;49.770;9.250;2023-04-24T12:40:38;13.80;99.30
67273;DHT22;54190;49.770;9.250;2023-04-24T12:43:17;13.70;99.90
67273;DHT22;54190;49.770;9.250;2023-04-24T12:45:43;13.70;99.40
67273;DHT22;54190;49.770;9.250;2023-04-24T12:48:10;13.70;99.90
67273;DHT22;54190;49.770;9.250;2023-04-24T12:50:36;13.70;99.90
67273;DHT22;54190;49.770;9.250;2023-04-24T12:53:01;13.70;99.10
67273;DHT22;54190;49.770;9.250;2023-04-24T12:55:27;13.50;99.90
67273;DHT22;54190;49.770;9.250;2023-04-24T12:57:53;13.40;99.90
67273;DHT22;54190;49.770;9.250;2023-04-24T13:00:20;13.30;99.90
67273;DHT22;54190;49.770;9.250;2023-04-24T13:02:46;13.30;99.90
67273;DHT22;54190;49.770;9.250;2023-04-24T13:05:12;13.20;99.90
67273;DHT22;54190;49.770;9.250;2023-04-24T13:07:39;13.00;99.90
67273;DHT22;54190;49.770;9.250;2023-04-24T13:10:06;12.90;99.90
67273;DHT22;54190;49.770;9.250;2023-04-24T13:12:32;12.70;99.90
67273;DHT22;54190;49.770;9.250;2023-04-24T13:14:58;12.20;99.90
67273;DHT22;54190;49.770;9.250;2023-04-24T13:17:24;11.70;99.90
67273;DHT22;54190;49.770;9.250;2023-04-24T13:19:50;11.40;99.90
67273;DHT22;54190;49.770;9.250;2023-04-24T13:22:17;11.30;99.90
67273;DHT22;54190;49.770;9.250;2023-04-24T13:24:44;11.20;99.90
67273;DHT22;54190;49.770;9.250;2023-04-24T13:27:10;11.10;99.90
67273;DHT22;54190;49.770;9.250;2023-04-24T13:29:36;10.90;99.90
67273;DHT22;54190;49.770;9.250;2023-04-24T13:32:02;10.80;99.90
67273;DHT22;54190;49.770;9.250;2023-04-24T13:34:28;10.90;99.90
67273;DHT22;54190;49.770;9.250;2023-04-24T13:36:56;11.00;99.90
67273;DHT22;54190;49.770;9.250;2023-04-24T13:39:23;11.40;99.90
67273;DHT22;54190;49.770;9.250;2023-04-24T13:41:49;11.70;99.90
67273;DHT22;54190;49.770;9.250;2023-04-24T13:44:19;12.10;99.90
67273;DHT22;54190;49.770;9.250;2023-04-24T13:46:47;12.40;99.90
67273;DHT22;54190;49.770;9.250;2023-04-24T13:49:14;12.70;99.90
67273;DHT22;54190;49.770;9.250;2023-04-24T13:51:41;13.10;99.90
67273;DHT22;54190;49.770;9.250;2023-04-24T13:54:07;13.30;99.90
67273;DHT22;54190;49.770;9.250;2023-04-24T13:56:33;13.50;99.90
67273;DHT22;54190;49.770;9.250;2023-04-24T13:58:59;13.60;99.90
67273;DHT22;54190;49.770;9.250;2023-04-24T14:01:25;13.70;99.90
67273;DHT22;54190;49.770;9.250;2023-04-24T14:03:51;13.80;99.90
67273;DHT22;54190;49.770;9.250;2023-04-24T14:06:18;14.00;99.90
67273;DHT22;54190;49.770;9.250;2023-04-24T14:08:44;14.10;99.90
67273;DHT22;54190;49.770;9.250;2023-04-24T14:11:10;14.10;99.90
67273;DHT22;54190;49.770;9.250;2023-04-24T14:13:36;14.20;99.90
67273;DHT22;54190;49.770;9.250;2023-04-24T14:16:03;14.20;99.90
67273;DHT22;54190;49.770;9.250;2023-04-24T14:18:29;14.30;99.90
67273;DHT22;54190;49.770;9.250;2023-04-24T14:20:55;14.30;99.90
67273;DHT22;54190;49.770;9.250;2023-04-24T14:23:20;14.30;99.90
67273;DHT22;54190;49.770;9.250;2023-04-24T14:25:49;14.30;99.90
67273;DHT22;54190;49.770;9.250;2023-04-24T14:28:18;14.30;99.90
67273;DHT22;54190;49.770;9.250;2023-04-24T14:30:44;14.10;99.90
67273;DHT22;54190;49.770;9.250;2023-04-24T14:33:10;13.90;99.90
67273;DHT22;54190;49.770;9.250;2023-04-24T14:35:37;13.90;99.90
67273;DHT22;54190;49.770;9.250;2023-04-24T14:38:03;14.00;99.90
67273;DHT22;54190;49.770;9.250;2023-04-24T14:40:28;14.00;99.10
67273;DHT22;54190;49.770;9.250;2023-04-24T14:42:54;13.80;99.90
67273;DHT22;54190;49.770;9.250;2023-04-24T14:45:20;13.70;99.80
67273;DHT22;54190;49.770;9.250;2023-04-24T14:47:46;13.60;99.50
67273;DHT22;54190;49.770;9.250;2023-04-24T14:50:12;13.50;99.10
67273;DHT22;54190;49.770;9.250;2023-04-24T14:52:38;13.30;98.90
67273;DHT22;54190;49.770;9.250;2023-04-24T14:55:04;13.10;99.50
67273;DHT22;54190;49.770;9.250;2023-04-24T14:57:32;13.00;99.50
67273;DHT22;54190;49.770;9.250;2023-04-24T14:59:58;12.90;99.30
67273;DHT22;54190;49.770;9.250;2023-04-24T15:02:23;12.80;99.90
67273;DHT22;54190;49.770;9.250;2023-04-24T15:04:49;12.80;99.90
67273;DHT22;54190;49.770;9.250;2023-04-24T15:07:15;12.80;99.90
67273;DHT22;54190;49.770;9.250;2023-04-24T15:09:40;12.90;99.70
67273;DHT22;54190;49.770;9.250;2023-04-24T15:12:06;12.90;99.90
67273;DHT22;54190;49.770;9.250;2023-04-24T15:14:32;13.10;99.90
67273;DHT22;54190;49.770;9.250;2023-04-24T15:16:57;13.20;99.90
67273;DHT22;54190;49.770;9.250;2023-04-24T15:19:23;13.20;99.90
67273;DHT22;54190;49.770;9.250;2023-04-24T15:21:49;13.30;99.90
67273;DHT22;54190;49.770;9.250;2023-04-24T15:24:14;13.30;98.50
67273;DHT22;54190;49.770;9.250;2023-04-24T15:26:40;13.30;99.50
67273;DHT22;54190;49.770;9.250;2023-04-24T15:29:06;13.30;99.90
67273;DHT22;54190;49.770;9.250;2023-04-24T15:31:31;13.40;99.90
67273;DHT22;54190;49.770;9.250;2023-04-24T15:33:57;13.40;99.90
67273;DHT22;54190;49.770;9.250;2023-04-24T15:36:22;13.40;99.90
67273;DHT22;54190;49.770;9.250;2023-04-24T15:38:49;13.40;99.60
67273;DHT22;54190;49.770;9.250;2023-04-24T15:41:15;13.30;99.20
67273;DHT22;54190;49.770;9.250;2023-04-24T15:43:40;13.20;98.40
67273;DHT22;54190;49.770;9.250;2023-04-24T15:46:07;13.20;99.00
67273;DHT22;54190;49.770;9.250;2023-04-24T15:48:33;13.10;99.30
67273;DHT22;54190;49.770;9.250;2023-04-24T15:50:58;13.10;98.00